Time;durP1;ratioP1;P1;durP2;ratioP2;P2;SDS_P1;SDS_P2;PMS_P1;PMS_P2;Temp;Humidity;BMP_temperature;BMP_pressure;BME280_temperature;BME280_humidity;BME280_pressure;Samples;Min_cycle;Max_cycle;Signal;HPM_P1;HPM_P2
2021/09/16 00:01:37;;;;;;;13.15;7.25;;;14.00;55.10;;;;;;5138577;27;20031;-32
2021/09/16 00:04:04;;;;;;;12.40;6.95;;;14.00;55.10;;;;;;5138942;27;20023;-34
2021/09/16 00:06:30;;;;;;;11.73;7.07;;;13.90;55.10;;;;;;5138497;27;20109;-35
2021/09/16 00:08:55;;;;;;;15.07;7.53;;;13.90;55.00;;;;;;5138634;27;20062;-32
2021/09/16 00:11:22;;;;;;;15.02;7.32;;;13.90;55.10;;;;;;5138399;27;20058;-31
2021/09/16 00:13:47;;;;;;;12.32;7.00;;;13.80;55.10;;;;;;5138328;27;20042;-32
2021/09/16 00:16:13;;;;;;;14.32;7.40;;;13.80;55.20;;;;;;5120123;27;20023;-32
2021/09/16 00:18:39;;;;;;;13.52;7.95;;;13.80;55.20;;;;;;5120290;27;20323;-33
2021/09/16 00:21:05;;;;;;;10.70;7.13;;;13.70;55.20;;;;;;5138137;27;20042;-32
2021/09/16 00:23:30;;;;;;;12.95;7.13;;;13.70;55.20;;;;;;5138292;27;20033;-33
2021/09/16 00:25:56;;;;;;;14.40;7.47;;;13.70;55.20;;;;;;5138261;27;20023;-35
2021/09/16 00:28:22;;;;;;;12.20;7.53;;;13.70;55.30;;;;;;5138771;27;20019;-33
2021/09/16 00:30:47;;;;;;;12.30;7.03;;;13.60;55.30;;;;;;5137828;27;20492;-35
2021/09/16 00:33:13;;;;;;;14.93;7.57;;;13.60;55.40;;;;;;5138353;27;20070;-35
2021/09/16 00:35:39;;;;;;;15.18;7.80;;;13.60;55.50;;;;;;5137883;27;20088;-35
2021/09/16 00:38:05;;;;;;;13.95;7.95;;;13.60;55.60;;;;;;5138387;27;20067;-36
2021/09/16 00:40:31;;;;;;;12.27;7.32;;;13.60;55.60;;;;;;5138136;27;20346;-33
2021/09/16 00:42:56;;;;;;;14.57;7.53;;;13.50;55.50;;;;;;5138124;27;20118;-33
2021/09/16 00:45:22;;;;;;;16.88;8.27;;;13.50;55.60;;;;;;5137789;27;20051;-32
2021/09/16 00:47:50;;;;;;;22.70;8.60;;;13.50;55.70;;;;;;5138038;27;20027;-32
2021/09/16 00:50:20;;;;;;;14.23;8.05;;;13.50;55.80;;;;;;5138108;27;20062;-34
2021/09/16 00:52:46;;;;;;;15.27;8.10;;;13.50;55.80;;;;;;5137746;27;20035;-35
2021/09/16 00:55:13;;;;;;;14.80;8.15;;;13.50;55.90;;;;;;5137452;27;20145;-35
2021/09/16 00:57:39;;;;;;;19.58;8.43;;;13.40;55.90;;;;;;5137716;27;20031;-36
2021/09/16 01:00:08;;;;;;;17.15;8.60;;;13.50;56.00;;;;;;5119502;27;20065;-33
2021/09/16 01:02:35;;;;;;;19.42;9.77;;;13.40;56.10;;;;;;5137139;27;20427;-35
2021/09/16 01:05:01;;;;;;;13.48;8.15;;;13.40;56.10;;;;;;5137705;27;20030;-32
2021/09/16 01:07:26;;;;;;;15.98;8.15;;;13.40;56.20;;;;;;5137718;27;20030;-32
2021/09/16 01:09:53;;;;;;;17.48;8.50;;;13.40;56.30;;;;;;5137668;27;20023;-32
2021/09/16 01:12:18;;;;;;;16.52;8.32;;;13.30;56.40;;;;;;5137420;27;20114;-35
2021/09/16 01:14:45;;;;;;;20.58;8.82;;;13.30;56.40;;;;;;5137341;27;20127;-32
2021/09/16 01:17:11;;;;;;;14.25;8.57;;;13.30;56.40;;;;;;5137326;27;20027;-34
2021/09/16 01:19:36;;;;;;;19.17;9.07;;;13.30;56.50;;;;;;5136842;27;20091;-35
2021/09/16 01:22:03;;;;;;;15.35;8.57;;;13.20;56.50;;;;;;5137281;27;20031;-33
2021/09/16 01:24:29;;;;;;;17.30;8.02;;;13.20;56.60;;;;;;5137494;27;20023;-34
2021/09/16 01:26:55;;;;;;;17.80;9.20;;;13.20;56.60;;;;;;5136922;27;20023;-35
2021/09/16 01:29:20;;;;;;;13.77;8.18;;;13.20;56.80;;;;;;5137040;27;20039;-35
2021/09/16 01:31:48;;;;;;;19.55;8.80;;;13.10;56.80;;;;;;5136949;27;20027;-45
2021/09/16 01:34:16;;;;;;;13.95;8.50;;;13.10;57.00;;;;;;5137098;27;20042;-34
2021/09/16 01:36:43;;;;;;;15.68;8.75;;;13.20;57.10;;;;;;5136941;27;20070;-43
2021/09/16 01:39:12;;;;;;;13.15;7.75;;;13.10;57.10;;;;;;5136808;27;20023;-35
2021/09/16 01:41:38;;;;;;;18.17;9.43;;;13.10;57.20;;;;;;5136750;27;20311;-34
2021/09/16 01:44:04;;;;;;;22.38;10.82;;;13.10;57.20;;;;;;5136538;27;20030;-44
2021/09/16 01:46:30;;;;;;;20.50;8.93;;;13.10;57.30;;;;;;5136751;27;20034;-35
2021/09/16 01:48:59;;;;;;;17.02;9.73;;;13.00;57.30;;;;;;5136638;27;20024;-44
2021/09/16 01:51:24;;;;;;;16.67;9.70;;;13.00;57.50;;;;;;5136658;27;20027;-42
2021/09/16 01:53:50;;;;;;;18.55;10.10;;;13.00;57.60;;;;;;5136527;27;20058;-44
2021/09/16 01:56:15;;;;;;;19.77;10.20;;;13.00;57.70;;;;;;5136716;27;20403;-43
2021/09/16 01:58:41;;;;;;;20.13;9.95;;;12.90;57.70;;;;;;5136791;28;20407;-35
2021/09/16 02:01:07;;;;;;;19.13;11.25;;;12.90;57.80;;;;;;5136616;28;20034;-44
2021/09/16 02:03:32;;;;;;;19.00;10.52;;;12.90;57.90;;;;;;5136960;28;20340;-34
2021/09/16 02:05:58;;;;;;;23.85;12.00;;;12.90;57.90;;;;;;5136370;28;20144;-37
2021/09/16 02:08:24;;;;;;;24.95;11.55;;;12.90;58.00;;;;;;5137250;28;20404;-43
2021/09/16 02:10:50;;;;;;;21.88;12.38;;;12.80;58.10;;;;;;5136207;28;20080;-44
2021/09/16 02:13:15;;;;;;;24.10;12.98;;;12.90;58.20;;;;;;5136833;28;20116;-36
2021/09/16 02:15:41;;;;;;;25.55;12.55;;;12.80;58.20;;;;;;5136256;28;20439;-35
2021/09/16 02:18:07;;;;;;;28.45;13.38;;;12.80;58.30;;;;;;5136428;28;20114;-32
2021/09/16 02:20:33;;;;;;;24.80;13.15;;;12.80;58.40;;;;;;5136457;28;20126;-36
2021/09/16 02:22:58;;;;;;;26.58;12.95;;;12.70;58.50;;;;;;5136859;28;20027;-32
2021/09/16 02:25:24;;;;;;;24.23;12.98;;;12.70;58.70;;;;;;5136457;28;20023;-35
2021/09/16 02:27:49;;;;;;;23.65;12.35;;;12.60;58.70;;;;;;5136605;28;20027;-32
2021/09/16 02:30:15;;;;;;;25.02;12.55;;;12.60;58.80;;;;;;5136404;28;20030;-34
2021/09/16 02:32:41;;;;;;;23.02;13.18;;;12.60;58.90;;;;;;5136531;28;20039;-37
2021/09/16 02:35:07;;;;;;;23.65;12.63;;;12.60;58.90;;;;;;5136570;28;20111;-35
2021/09/16 02:37:33;;;;;;;26.40;12.40;;;12.60;59.00;;;;;;5136465;28;20334;-37
2021/09/16 02:39:58;;;;;;;24.67;12.65;;;12.50;59.10;;;;;;5136176;28;20118;-34
2021/09/16 02:42:24;;;;;;;29.33;14.10;;;12.50;59.20;;;;;;5136383;28;20087;-43
2021/09/16 02:44:50;;;;;;;22.15;12.45;;;12.50;59.30;;;;;;5136211;28;20050;-43
2021/09/16 02:47:15;;;;;;;22.63;12.27;;;12.50;59.30;;;;;;5136303;28;20411;-35
2021/09/16 02:49:41;;;;;;;23.15;12.50;;;12.40;59.40;;;;;;5136064;28;20031;-44
2021/09/16 02:52:07;;;;;;;23.33;12.38;;;12.40;59.50;;;;;;5136442;28;20031;-35
2021/09/16 02:54:33;;;;;;;21.60;11.00;;;12.30;59.50;;;;;;5136046;28;20342;-37
2021/09/16 02:56:58;;;;;;;25.50;12.70;;;12.30;59.60;;;;;;5137551;27;20323;-35
2021/09/16 02:59:24;;;;;;;20.85;12.00;;;12.30;59.60;;;;;;5140052;27;20032;-43
2021/09/16 03:01:49;;;;;;;20.13;11.10;;;12.30;59.60;;;;;;5139806;27;20070;-34
2021/09/16 03:04:15;;;;;;;21.88;10.75;;;12.30;59.70;;;;;;5139817;27;20023;-44
2021/09/16 03:06:41;;;;;;;23.92;11.57;;;12.30;59.70;;;;;;5139866;27;20360;-35
2021/09/16 03:09:07;;;;;;;23.38;11.52;;;12.30;59.70;;;;;;5139670;27;20327;-44
2021/09/16 03:11:33;;;;;;;17.48;10.07;;;12.30;59.80;;;;;;5139737;27;20084;-44
2021/09/16 03:13:58;;;;;;;22.15;10.63;;;12.30;59.90;;;;;;5139672;27;20406;-43
2021/09/16 03:16:24;;;;;;;20.35;10.80;;;12.30;60.00;;;;;;5139520;27;20114;-43
2021/09/16 03:18:50;;;;;;;40.25;13.00;;;12.30;60.00;;;;;;5139561;27;20035;-34
2021/09/16 03:21:15;;;;;;;24.83;11.48;;;12.30;60.00;;;;;;5139611;27;20368;-42
2021/09/16 03:23:41;;;;;;;22.15;10.45;;;12.30;60.20;;;;;;5139643;27;20106;-43
2021/09/16 03:26:07;;;;;;;20.33;11.48;;;12.40;60.20;;;;;;5139393;27;20023;-37
2021/09/16 03:28:34;;;;;;;20.15;10.52;;;12.40;60.30;;;;;;5139587;27;20403;-36
2021/09/16 03:31:00;;;;;;;22.42;11.80;;;12.40;60.30;;;;;;5139117;27;20023;-44
2021/09/16 03:33:25;;;;;;;23.80;11.30;;;12.50;60.40;;;;;;5139581;27;20038;-35
2021/09/16 03:35:51;;;;;;;18.88;10.25;;;12.60;60.40;;;;;;5139040;27;20043;-44
2021/09/16 03:38:17;;;;;;;22.55;11.63;;;12.60;60.40;;;;;;5139777;27;20411;-35
2021/09/16 03:40:42;;;;;;;17.00;10.60;;;12.70;60.40;;;;;;5138653;27;20039;-44
2021/09/16 03:43:08;;;;;;;20.00;11.02;;;12.70;60.40;;;;;;5139445;27;20411;-43
2021/09/16 03:45:34;;;;;;;28.17;12.15;;;12.80;60.40;;;;;;5138933;27;20068;-34
2021/09/16 03:47:59;;;;;;;21.77;10.70;;;12.90;60.50;;;;;;5120870;27;20035;-35
2021/09/16 03:50:25;;;;;;;19.25;10.52;;;12.90;60.40;;;;;;5138842;27;20464;-34
2021/09/16 03:52:51;;;;;;;18.65;10.50;;;13.00;60.60;;;;;;5138965;27;20030;-36
2021/09/16 03:55:16;;;;;;;28.70;12.48;;;13.00;60.60;;;;;;5138688;27;20372;-35
2021/09/16 03:57:42;;;;;;;26.88;13.68;;;13.10;60.60;;;;;;5138653;27;20055;-41
2021/09/16 04:00:09;;;;;;;24.83;11.80;;;13.20;60.50;;;;;;5138681;27;20038;-34
2021/09/16 04:02:35;;;;;;;20.23;12.32;;;13.20;60.50;;;;;;5138764;27;20423;-43
2021/09/16 04:05:01;;;;;;;23.75;11.15;;;13.30;61.20;;;;;;5138608;27;20062;-43
2021/09/16 04:07:26;;;;;;;18.83;10.85;;;13.40;60.50;;;;;;5138036;27;20031;-34
2021/09/16 04:09:52;;;;;;;25.77;11.40;;;13.50;60.50;;;;;;5138490;27;20031;-34
2021/09/16 04:12:18;;;;;;;16.35;10.10;;;13.50;60.40;;;;;;5138238;27;20411;-43
2021/09/16 04:14:44;;;;;;;20.52;11.05;;;13.60;60.40;;;;;;5138337;27;20027;-34
2021/09/16 04:17:09;;;;;;;21.75;10.65;;;13.60;60.20;;;;;;5138446;27;20084;-35
2021/09/16 04:19:35;;;;;;;16.63;10.63;;;13.70;60.10;;;;;;5137930;27;20023;-45
2021/09/16 04:22:01;;;;;;;21.90;10.80;;;13.80;60.00;;;;;;5138136;27;20031;-43
2021/09/16 04:24:26;;;;;;;22.58;10.20;;;13.80;60.00;;;;;;5138214;27;20019;-43
2021/09/16 04:26:52;;;;;;;23.38;11.00;;;13.90;60.10;;;;;;5138167;27;20487;-35
2021/09/16 04:29:18;;;;;;;30.80;11.57;;;14.00;60.20;;;;;;5138138;27;20338;-44
2021/09/16 04:31:44;;;;;;;25.60;12.60;;;14.10;60.20;;;;;;5138143;27;20031;-45
2021/09/16 04:34:10;;;;;;;24.10;10.98;;;14.10;60.30;;;;;;5137850;27;20102;-43
2021/09/16 04:36:36;;;;;;;26.25;11.85;;;14.20;60.40;;;;;;5137885;27;20031;-44
2021/09/16 04:39:03;;;;;;;23.00;12.27;;;14.20;60.60;;;;;;5137876;27;20040;-44
2021/09/16 04:41:30;;;;;;;28.95;15.38;;;14.30;61.00;;;;;;5137541;27;20030;-44
2021/09/16 04:43:56;;;;;;;30.50;17.13;;;14.40;61.00;;;;;;5137680;27;20317;-44
2021/09/16 04:46:22;;;;;;;39.80;16.67;;;14.40;61.20;;;;;;5137803;27;20022;-43
2021/09/16 04:48:48;;;;;;;31.83;17.48;;;14.50;61.40;;;;;;5137794;27;20034;-42
2021/09/16 04:51:13;;;;;;;33.72;17.00;;;14.60;61.50;;;;;;5137540;27;20111;-43
2021/09/16 04:53:39;;;;;;;28.95;17.75;;;14.60;61.40;;;;;;5137498;27;20446;-43
2021/09/16 04:56:05;;;;;;;27.85;16.73;;;14.70;61.70;;;;;;5137514;27;20072;-44
2021/09/16 04:58:30;;;;;;;35.28;18.55;;;14.80;61.70;;;;;;5137694;27;20455;-44
2021/09/16 05:00:56;;;;;;;33.67;18.55;;;14.90;61.60;;;;;;5136961;27;20051;-34
2021/09/16 05:03:22;;;;;;;64.00;31.40;;;14.90;61.30;;;;;;5138082;27;20067;-34
2021/09/16 05:05:47;;;;;;;77.22;32.30;;;15.00;61.40;;;;;;5136810;27;20102;-35
2021/09/16 05:08:14;;;;;;;62.28;25.92;;;15.10;61.30;;;;;;5137490;27;20027;-44
2021/09/16 05:10:40;;;;;;;45.03;20.67;;;15.10;61.20;;;;;;5136850;27;20035;-41
2021/09/16 05:13:05;;;;;;;63.08;26.98;;;15.20;61.10;;;;;;5137213;27;20039;-43
2021/09/16 05:15:31;;;;;;;60.47;26.27;;;15.20;61.10;;;;;;5136616;27;20054;-38
2021/09/16 05:17:57;;;;;;;37.53;19.85;;;15.30;61.10;;;;;;5137247;27;20114;-34
2021/09/16 05:20:22;;;;;;;51.13;19.92;;;15.30;61.10;;;;;;5135642;27;20030;-34
2021/09/16 05:22:48;;;;;;;31.83;17.58;;;15.40;61.40;;;;;;5137112;27;20032;-43
2021/09/16 05:25:14;;;;;;;33.90;16.00;;;15.40;61.40;;;;;;5136769;27;20450;-34
2021/09/16 05:27:39;;;;;;;30.27;17.45;;;15.50;62.00;;;;;;5137036;27;20030;-43
2021/09/16 05:30:06;;;;;;;32.17;15.32;;;15.60;61.50;;;;;;5136933;27;20102;-43
2021/09/16 05:32:31;;;;;;;34.65;15.73;;;15.70;61.30;;;;;;5118288;27;20434;-43
2021/09/16 05:34:57;;;;;;;35.08;15.48;;;15.80;61.00;;;;;;5136532;27;20023;-33
2021/09/16 05:37:23;;;;;;;28.88;14.63;;;15.80;60.80;;;;;;5136927;27;20122;-42
2021/09/16 05:39:50;;;;;;;25.15;14.88;;;15.90;60.90;;;;;;5136844;27;20027;-43
2021/09/16 05:42:15;;;;;;;33.97;14.70;;;16.00;61.10;;;;;;5136617;27;20054;-34
2021/09/16 05:44:41;;;;;;;31.08;17.30;;;16.00;61.00;;;;;;5136161;27;20427;-43
2021/09/16 05:47:07;;;;;;;22.35;13.65;;;16.10;61.30;;;;;;5136602;27;20035;-43
2021/09/16 05:49:32;;;;;;;26.88;14.30;;;16.20;61.70;;;;;;5136408;27;20106;-34
2021/09/16 05:51:58;;;;;;;30.52;16.13;;;16.30;61.90;;;;;;5136384;27;20403;-33
2021/09/16 05:54:24;;;;;;;21.58;13.35;;;16.30;61.60;;;;;;5136117;27;20051;-34
2021/09/16 05:56:49;;;;;;;29.50;18.95;;;16.40;61.50;;;;;;5136271;28;20035;-43
2021/09/16 05:59:15;;;;;;;25.52;14.40;;;16.50;61.40;;;;;;5136255;27;20336;-36
2021/09/16 06:01:41;;;;;;;27.10;13.50;;;16.60;61.00;;;;;;5136141;28;20400;-43
2021/09/16 06:04:06;;;;;;;29.10;16.88;;;16.60;61.00;;;;;;5136106;28;20060;-42
2021/09/16 06:06:32;;;;;;;34.92;19.95;;;16.70;61.00;;;;;;5136118;28;20023;-43
2021/09/16 06:08:58;;;;;;;25.23;13.63;;;16.80;61.00;;;;;;5136074;28;20027;-43
2021/09/16 06:11:25;;;;;;;28.70;14.63;;;16.90;61.00;;;;;;5136199;28;20126;-45
2021/09/16 06:13:54;;;;;;;33.88;15.68;;;16.90;60.80;;;;;;5135827;28;20423;-44
2021/09/16 06:16:20;;;;;;;31.50;16.80;;;17.00;60.90;;;;;;5136101;28;20038;-35
2021/09/16 06:18:46;;;;;;;28.00;15.55;;;17.10;60.90;;;;;;5135704;28;20074;-44
2021/09/16 06:21:12;;;;;;;27.52;14.77;;;17.10;61.00;;;;;;5135765;28;20027;-35
2021/09/16 06:23:37;;;;;;;27.90;14.93;;;17.20;61.00;;;;;;5136008;28;20023;-35
2021/09/16 06:26:03;;;;;;;25.75;13.73;;;17.20;60.70;;;;;;5135804;28;20024;-44
2021/09/16 06:28:28;;;;;;;30.52;16.33;;;17.30;60.50;;;;;;5136497;28;20061;-40
2021/09/16 06:30:54;;;;;;;39.10;14.65;;;17.30;60.70;;;;;;5136838;27;20417;-35
2021/09/16 06:33:20;;;;;;;22.90;12.52;;;17.40;60.50;;;;;;5140581;27;20411;-44
2021/09/16 06:35:45;;;;;;;30.25;15.15;;;17.40;60.10;;;;;;5140063;27;20313;-44
2021/09/16 06:38:11;;;;;;;47.13;23.35;;;17.50;59.80;;;;;;5140560;27;20031;-44
2021/09/16 06:40:37;;;;;;;26.00;16.45;;;17.60;59.90;;;;;;5139705;27;20054;-36
2021/09/16 06:43:03;;;;;;;36.83;13.50;;;17.60;59.60;;;;;;5140343;27;20023;-43
2021/09/16 06:45:28;;;;;;;24.35;12.90;;;17.70;59.60;;;;;;5140001;27;20028;-45
2021/09/16 06:47:54;;;;;;;22.08;12.15;;;17.80;59.20;;;;;;5140249;27;20300;-43
2021/09/16 06:50:19;;;;;;;26.33;14.77;;;17.90;58.70;;;;;;5140034;27;20035;-44
2021/09/16 06:52:45;;;;;;;23.58;12.80;;;17.90;58.50;;;;;;5139591;27;20023;-35
2021/09/16 06:55:11;;;;;;;32.38;16.65;;;18.10;58.50;;;;;;5139541;27;20049;-34
2021/09/16 06:57:36;;;;;;;27.65;14.20;;;18.10;58.40;;;;;;5139996;27;20086;-32
2021/09/16 07:00:03;;;;;;;26.95;14.18;;;18.20;58.10;;;;;;5139597;27;20368;-34
2021/09/16 07:02:29;;;;;;;25.88;13.55;;;18.30;58.50;;;;;;5139921;27;20033;-33
2021/09/16 07:04:55;;;;;;;29.88;14.80;;;18.40;58.70;;;;;;5139618;27;20043;-33
2021/09/16 07:07:21;;;;;;;23.85;11.88;;;18.50;59.20;;;;;;5139528;27;20035;-34
2021/09/16 07:09:46;;;;;;;27.50;13.73;;;18.60;58.90;;;;;;5139626;27;20411;-33
2021/09/16 07:12:12;;;;;;;26.10;13.40;;;18.70;59.00;;;;;;5139651;27;20038;-34
2021/09/16 07:14:38;;;;;;;25.10;13.32;;;18.80;58.90;;;;;;5139228;27;20057;-33
2021/09/16 07:17:03;;;;;;;29.98;14.70;;;18.80;58.90;;;;;;5139399;27;20038;-36
2021/09/16 07:19:29;;;;;;;28.13;14.02;;;18.90;58.90;;;;;;5138606;27;20099;-33
2021/09/16 07:21:55;;;;;;;18.15;11.90;;;18.90;59.00;;;;;;5139050;27;20039;-37
2021/09/16 07:24:21;;;;;;;22.27;12.73;;;19.00;58.70;;;;;;5138932;27;20047;-34
2021/09/16 07:26:50;;;;;;;22.73;12.07;;;19.10;59.00;;;;;;5138813;27;20319;-35
2021/09/16 07:29:20;;;;;;;25.67;13.43;;;19.10;58.70;;;;;;5139210;27;20106;-37
2021/09/16 07:31:47;;;;;;;26.05;14.27;;;19.20;58.70;;;;;;5138958;27;20345;-34
2021/09/16 07:34:14;;;;;;;29.05;15.07;;;19.20;58.60;;;;;;5138625;27;20031;-32
2021/09/16 07:36:40;;;;;;;21.33;12.13;;;19.30;58.90;;;;;;5138602;27;20035;-31
2021/09/16 07:39:06;;;;;;;25.20;12.25;;;19.30;58.90;;;;;;5139053;27;20050;-36
2021/09/16 07:41:32;;;;;;;24.13;12.05;;;19.40;58.70;;;;;;5138735;27;20073;-34
2021/09/16 07:43:58;;;;;;;17.83;11.13;;;19.40;58.60;;;;;;5138195;27;20019;-34
2021/09/16 07:46:24;;;;;;;32.67;18.40;;;19.50;58.20;;;;;;5138728;27;20076;-32
2021/09/16 07:48:50;;;;;;;44.05;29.73;;;19.50;58.00;;;;;;5139004;27;20076;-35
2021/09/16 07:51:15;;;;;;;31.85;20.50;;;19.50;57.30;;;;;;5138313;27;20031;-32
2021/09/16 07:53:41;;;;;;;23.70;13.93;;;19.60;56.10;;;;;;5138398;27;20035;-33
2021/09/16 07:56:07;;;;;;;16.27;9.52;;;19.60;55.90;;;;;;5138575;27;20107;-36
2021/09/16 07:58:32;;;;;;;16.33;8.75;;;19.70;55.20;;;;;;5138374;27;20323;-33
2021/09/16 08:00:58;;;;;;;20.33;8.20;;;19.70;54.60;;;;;;5137868;27;20076;-35
2021/09/16 08:03:23;;;;;;;29.20;16.48;;;19.80;54.10;;;;;;5138125;27;20075;-35
2021/09/16 08:05:49;;;;;;;16.55;9.30;;;19.80;53.60;;;;;;5138049;27;20061;-35
2021/09/16 08:08:15;;;;;;;14.95;9.18;;;19.90;53.60;;;;;;5138624;27;20093;-33
2021/09/16 08:10:40;;;;;;;19.35;13.00;;;19.90;53.10;;;;;;5138248;27;20034;-36
2021/09/16 08:13:06;;;;;;;21.10;9.77;;;19.90;52.60;;;;;;5138006;27;20165;-34
2021/09/16 08:15:32;;;;;;;37.22;23.35;;;20.00;53.10;;;;;;5138131;27;20308;-34
2021/09/16 08:17:59;;;;;;;36.53;20.73;;;20.10;53.70;;;;;;5138738;27;20348;-34
2021/09/16 08:20:25;;;;;;;28.27;13.05;;;20.20;53.70;;;;;;5138396;27;20035;-36
2021/09/16 08:22:51;;;;;;;16.88;9.00;;;20.20;54.00;;;;;;5138547;27;20069;-33
2021/09/16 08:25:17;;;;;;;20.98;15.50;;;20.30;54.00;;;;;;5138270;27;20047;-32
2021/09/16 08:27:43;;;;;;;13.95;7.00;;;20.30;52.00;;;;;;5138281;27;20399;-35
2021/09/16 08:30:10;;;;;;;10.88;6.35;;;20.40;51.20;;;;;;5138313;27;20031;-36
2021/09/16 08:32:35;;;;;;;8.38;5.28;;;20.40;50.10;;;;;;5138002;27;20088;-35
2021/09/16 08:35:03;;;;;;;12.50;5.80;;;20.40;49.60;;;;;;5137929;27;20029;-33
2021/09/16 08:37:29;;;;;;;15.82;6.30;;;20.50;49.40;;;;;;5138176;27;20031;-36
2021/09/16 08:39:54;;;;;;;8.40;5.00;;;20.50;49.40;;;;;;5137524;27;20029;-36
2021/09/16 08:42:23;;;;;;;9.93;5.55;;;20.50;49.60;;;;;;5137615;27;20035;-33
2021/09/16 08:44:51;;;;;;;12.93;5.45;;;20.50;50.00;;;;;;5137779;27;20027;-36
2021/09/16 08:47:17;;;;;;;16.67;10.95;;;20.60;49.50;;;;;;5137763;27;20031;-33
2021/09/16 08:49:43;;;;;;;9.40;5.15;;;20.60;49.60;;;;;;5137495;27;20055;-35
2021/09/16 08:52:10;;;;;;;9.00;4.82;;;20.60;50.10;;;;;;5137580;27;20035;-33
2021/09/16 08:54:38;;;;;;;9.05;4.28;;;20.60;50.20;;;;;;5137365;27;20051;-34
2021/09/16 08:57:04;;;;;;;6.47;4.07;;;20.70;49.40;;;;;;5137555;27;20083;-35
2021/09/16 08:59:31;;;;;;;7.90;4.38;;;20.70;48.90;;;;;;5137741;27;20109;-35
2021/09/16 09:01:57;;;;;;;9.27;3.90;;;20.70;48.10;;;;;;5137065;27;20034;-33
2021/09/16 09:04:23;;;;;;;5.13;3.30;;;20.80;47.00;;;;;;5137585;27;20403;-34
2021/09/16 09:07:03;;;;;;;4.03;2.15;;;20.80;46.10;;;;;;5137261;27;20430;-36
2021/09/16 09:09:30;;;;;;;6.50;2.20;;;20.80;43.20;;;;;;5137128;27;20070;-33
2021/09/16 09:12:14;;;;;;;4.70;2.40;;;20.80;43.00;;;;;;5137145;27;20035;-33
2021/09/16 09:14:43;;;;;;;6.40;2.03;;;20.80;42.90;;;;;;5136721;27;20023;-36
2021/09/16 09:17:19;;;;;;;4.80;2.40;;;20.80;42.00;;;;;;5136733;27;20039;-36
2021/09/16 09:19:46;;;;;;;5.93;2.78;;;20.80;41.70;;;;;;5136911;27;20034;-33
2021/09/16 09:22:12;;;;;;;4.72;1.88;;;20.80;41.20;;;;;;5136784;27;20327;-33
2021/09/16 09:24:41;;;;;;;5.47;3.03;;;20.80;40.50;;;;;;5136903;27;20024;-34
2021/09/16 09:27:27;;;;;;;4.05;2.53;;;20.90;40.50;;;;;;5136688;27;20031;-35
2021/09/16 09:30:18;;;;;;;6.72;2.70;;;20.90;40.60;;;;;;5137010;27;20035;-34
2021/09/16 09:32:57;;;;;;;4.53;2.72;;;21.00;39.60;;;;;;5136895;27;20050;-32
2021/09/16 09:35:36;;;;;;;5.60;2.10;;;21.00;40.00;;;;;;5136845;27;20035;-34
2021/09/16 09:38:25;;;;;;;3.47;1.83;;;21.10;39.10;;;;;;5136954;27;20327;-33
2021/09/16 09:40:56;;;;;;;2.63;1.92;;;21.10;38.60;;;;;;5136691;27;20038;-34
2021/09/16 09:43:31;;;;;;;6.25;3.85;;;21.20;38.60;;;;;;5137373;27;20399;-35
2021/09/16 09:46:14;;;;;;;4.43;2.40;;;21.20;38.80;;;;;;5136312;27;20028;-36
2021/09/16 09:48:56;;;;;;;8.30;3.45;;;21.20;38.20;;;;;;5136818;27;20031;-33
2021/09/16 09:51:45;;;;;;;5.43;2.63;;;21.30;38.30;;;;;;5136385;27;20050;-36
2021/09/16 09:54:26;;;;;;;5.35;2.30;;;21.30;38.00;;;;;;5136308;27;20046;-33
2021/09/16 09:57:09;;;;;;;3.97;2.22;;;21.40;38.90;;;;;;5136210;27;20131;-40
2021/09/16 10:00:00;;;;;;;4.93;2.20;;;21.50;38.60;;;;;;5136293;27;20027;-36
2021/09/16 10:02:30;;;;;;;4.28;2.60;;;21.50;38.50;;;;;;5136438;28;20031;-37
2021/09/16 10:04:57;;;;;;;4.80;3.15;;;21.60;38.90;;;;;;5136826;27;20023;-45
2021/09/16 10:07:37;;;;;;;3.85;2.40;;;21.60;39.10;;;;;;5143350;27;20032;-42
2021/09/16 10:10:09;;;;;;;5.53;2.50;;;21.70;39.10;;;;;;5143442;27;20026;-43
2021/09/16 10:12:36;;;;;;;4.07;2.22;;;21.70;38.80;;;;;;5143270;27;20103;-44
2021/09/16 10:15:02;;;;;;;5.65;2.40;;;21.70;39.00;;;;;;5142684;27;20407;-43
2021/09/16 10:17:28;;;;;;;5.68;2.60;;;21.80;39.40;;;;;;5143413;27;20039;-35
2021/09/16 10:19:53;;;;;;;4.75;2.45;;;21.80;39.30;;;;;;5143206;27;20027;-44
2021/09/16 10:22:19;;;;;;;6.50;3.50;;;21.90;39.00;;;;;;5143313;27;20043;-39
2021/09/16 10:24:46;;;;;;;3.60;2.25;;;22.00;38.50;;;;;;5143194;27;20263;-43
2021/09/16 10:27:46;;;;;;;3.28;2.20;;;22.10;39.10;;;;;;5143100;27;20037;-44
2021/09/16 10:30:23;;;;;;;3.47;2.03;;;22.20;39.00;;;;;;5124500;27;20122;-36
2021/09/16 10:33:00;;;;;;;4.65;2.40;;;22.30;38.70;;;;;;5142866;27;20046;-37
2021/09/16 10:35:25;;;;;;;4.18;1.77;;;22.40;38.30;;;;;;5142949;27;20076;-46
2021/09/16 10:37:51;;;;;;;4.38;2.88;;;22.50;38.20;;;;;;5143041;27;20130;-44
2021/09/16 10:40:23;;;;;;;3.50;2.13;;;22.50;37.70;;;;;;5142682;27;20056;-38
2021/09/16 10:43:02;;;;;;;5.60;1.60;;;22.60;37.30;;;;;;5143036;27;20066;-45
2021/09/16 10:45:33;;;;;;;5.75;2.17;;;22.70;37.20;;;;;;5142653;27;20047;-38
2021/09/16 10:48:17;;;;;;;2.50;1.70;;;22.70;36.70;;;;;;5143057;27;20027;-45
2021/09/16 10:50:49;;;;;;;4.05;2.13;;;22.80;36.70;;;;;;5142284;27;20102;-44
2021/09/16 10:53:36;;;;;;;4.30;2.28;;;22.90;36.90;;;;;;5143080;27;20381;-35
2021/09/16 10:56:04;;;;;;;5.50;2.55;;;22.90;37.10;;;;;;5142487;27;20038;-44
2021/09/16 10:58:30;;;;;;;5.35;2.45;;;23.00;36.30;;;;;;5142699;27;20386;-45
2021/09/16 11:00:56;;;;;;;5.18;3.38;;;23.10;36.10;;;;;;5142014;27;20099;-39
2021/09/16 11:03:22;;;;;;;5.43;2.65;;;23.10;36.20;;;;;;5143235;27;20395;-45
2021/09/16 11:05:55;;;;;;;5.78;2.50;;;23.20;36.20;;;;;;5142232;27;20034;-39
2021/09/16 11:08:42;;;;;;;5.65;2.50;;;23.30;36.30;;;;;;5143314;27;20431;-44
2021/09/16 11:11:08;;;;;;;5.93;2.58;;;23.40;36.20;;;;;;5142367;27;20019;-45
2021/09/16 11:13:42;;;;;;;4.07;2.42;;;23.50;36.50;;;;;;5142341;27;20046;-45
2021/09/16 11:16:09;;;;;;;7.68;3.28;;;23.60;36.40;;;;;;5142596;27;20327;-45
2021/09/16 11:18:35;;;;;;;16.75;5.07;;;23.70;35.90;;;;;;5137818;27;20112;-45
2021/09/16 11:21:06;;;;;;;6.97;2.75;;;23.80;35.60;;;;;;5139155;27;20116;-37
2021/09/16 11:23:42;;;;;;;4.25;2.47;;;23.90;35.30;;;;;;5139263;27;20028;-36
2021/09/16 11:26:18;;;;;;;5.82;3.72;;;24.00;35.70;;;;;;5138648;27;20026;-35
2021/09/16 11:28:54;;;;;;;5.07;3.17;;;24.10;36.10;;;;;;5139055;27;20045;-37
2021/09/16 11:31:19;;;;;;;8.00;4.10;;;24.20;36.30;;;;;;5138955;27;20027;-45
2021/09/16 11:33:45;;;;;;;8.32;3.92;;;24.30;36.00;;;;;;5138912;27;20024;-35
2021/09/16 11:36:10;;;;;;;10.70;4.70;;;24.40;35.60;;;;;;5138550;27;20058;-37
2021/09/16 11:38:36;;;;;;;8.77;3.53;;;24.40;34.80;;;;;;5138329;27;20057;-45
2021/09/16 11:41:04;;;;;;;6.75;2.95;;;24.60;34.80;;;;;;5138322;27;20323;-45
2021/09/16 11:43:31;;;;;;;4.18;2.80;;;24.70;34.20;;;;;;5138857;27;20031;-35
2021/09/16 11:45:56;;;;;;;8.15;3.15;;;24.80;34.10;;;;;;5138503;27;20395;-46
2021/09/16 11:48:24;;;;;;;4.72;3.20;;;24.80;33.50;;;;;;5138539;27;20041;-36
2021/09/16 11:51:08;;;;;;;6.38;3.08;;;24.90;33.70;;;;;;5138279;27;20035;-37
2021/09/16 11:53:36;;;;;;;15.70;3.22;;;25.00;33.40;;;;;;5138805;27;20069;-44
2021/09/16 11:56:05;;;;;;;18.65;7.10;;;25.10;33.60;;;;;;5138808;27;20043;-35
2021/09/16 11:58:32;;;;;;;4.60;2.80;;;25.20;33.30;;;;;;5138739;27;20419;-43
2021/09/16 12:01:04;;;;;;;9.13;2.78;;;25.40;33.20;;;;;;5138183;27;20038;-36
2021/09/16 12:03:36;;;;;;;7.28;2.53;;;25.60;32.80;;;;;;5138656;27;20323;-36
2021/09/16 12:06:15;;;;;;;6.60;3.08;;;25.70;32.70;;;;;;5138404;27;20034;-45
2021/09/16 12:08:55;;;;;;;5.90;2.10;;;25.80;33.40;;;;;;5138544;27;20318;-38
2021/09/16 12:11:23;;;;;;;7.55;2.00;;;26.00;33.70;;;;;;5138308;27;20442;-38
2021/09/16 12:13:50;;;;;;;4.53;2.40;;;26.20;33.40;;;;;;5137356;27;20113;-45
2021/09/16 12:16:24;;;;;;;6.68;2.60;;;26.40;33.40;;;;;;5138391;27;20292;-44
2021/09/16 12:19:10;;;;;;;4.95;2.78;;;26.60;32.80;;;;;;5137766;27;20111;-46
2021/09/16 12:21:44;;;;;;;4.90;2.40;;;26.80;33.10;;;;;;5137948;27;20031;-46
2021/09/16 12:24:12;;;;;;;3.58;1.95;;;26.90;32.90;;;;;;5138277;27;20069;-44
2021/09/16 12:26:42;;;;;;;5.60;2.88;;;27.10;32.70;;;;;;5137836;27;20038;-46
2021/09/16 12:29:10;;;;;;;4.53;2.47;;;27.20;32.30;;;;;;5137297;27;20026;-36
2021/09/16 12:31:40;;;;;;;4.90;1.95;;;27.40;32.50;;;;;;5137578;27;20080;-36
2021/09/16 12:34:12;;;;;;;3.83;2.30;;;27.60;32.30;;;;;;5137428;27;20027;-36
2021/09/16 12:36:57;;;;;;;7.55;2.50;;;27.80;32.10;;;;;;5137777;27;20271;-37
2021/09/16 12:39:24;;;;;;;4.15;2.10;;;27.90;32.20;;;;;;5137747;27;20054;-40